createdAt,value
2018-07-07T00:00:17.278Z,101424.81
2018-07-07T00:02:46.720Z,101426.30
2018-07-07T00:05:15.398Z,101422.14
2018-07-07T00:07:44.390Z,101427.88
2018-07-07T00:10:14.160Z,101427.39
2018-07-07T00:12:43.194Z,101431.77
2018-07-07T00:15:16.622Z,101433.34
2018-07-07T00:17:45.835Z,101436.67
2018-07-07T00:20:15.103Z,101435.02
2018-07-07T00:22:44.634Z,101445.61
2018-07-07T00:25:15.761Z,101438.64
2018-07-07T00:27:45.795Z,101439.39
2018-07-07T00:30:15.196Z,101441.47
2018-07-07T00:32:44.381Z,101439.29
2018-07-07T00:35:13.466Z,101447.20
2018-07-07T00:37:42.589Z,101447.41
2018-07-07T00:40:11.817Z,101445.73
2018-07-07T00:42:40.885Z,101447.30
2018-07-07T00:45:09.869Z,101442.73
2018-07-07T00:47:38.535Z,101452.75
2018-07-07T00:50:08.778Z,101458.05
2018-07-07T00:52:37.517Z,101458.05
2018-07-07T00:55:06.459Z,101460.75
2018-07-07T00:57:35.087Z,101458.25
2018-07-07T01:00:04.342Z,101454.20
2018-07-07T01:02:33.336Z,101459.79
2018-07-07T01:05:02.313Z,101463.30
2018-07-07T01:07:31.010Z,101462.21
2018-07-07T01:09:59.903Z,101460.69
2018-07-07T01:12:28.627Z,101468.41
2018-07-07T01:14:58.064Z,101466.52
2018-07-07T01:17:27.578Z,101464.59
2018-07-07T01:19:56.321Z,101461.97
2018-07-07T01:22:25.111Z,101462.09
2018-07-07T01:24:53.827Z,101464.84
2018-07-07T01:27:22.585Z,101458.45
2018-07-07T01:29:51.273Z,101464.58
2018-07-07T01:32:19.885Z,101462.23
2018-07-07T01:34:48.906Z,101458.61
2018-07-07T01:37:17.537Z,101462.72
2018-07-07T01:39:46.560Z,101459.52
2018-07-07T01:42:16.046Z,101458.80
2018-07-07T01:44:46.288Z,101457.63
2018-07-07T01:47:16.275Z,101458.66
2018-07-07T01:49:45.924Z,101460.73
2018-07-07T01:52:14.933Z,101462.99
2018-07-07T01:54:43.586Z,101461.39
2018-07-07T01:57:12.298Z,101462.86
2018-07-07T01:59:42.281Z,101459.59
2018-07-07T02:02:12.072Z,101460.72
2018-07-07T02:04:41.269Z,101458.25
2018-07-07T02:07:10.267Z,101464.11
2018-07-07T02:09:38.929Z,101466.90
2018-07-07T02:12:07.942Z,101465.53
2018-07-07T02:14:37.988Z,101464.23
2018-07-07T02:17:06.744Z,101460.34
2018-07-07T02:19:35.474Z,101457.55
2018-07-07T02:22:04.151Z,101454.53
2018-07-07T02:24:32.765Z,101460.43
2018-07-07T02:27:01.780Z,101458.38
2018-07-07T02:29:30.705Z,101457.41
2018-07-07T02:31:59.602Z,101460.75
2018-07-07T02:34:28.407Z,101455.51
2018-07-07T02:36:57.451Z,101458.09
2018-07-07T02:39:26.190Z,101462.00
2018-07-07T02:41:55.269Z,101471.31
2018-07-07T02:44:24.004Z,101465.16
2018-07-07T02:46:52.846Z,101476.17
2018-07-07T02:49:21.488Z,101473.57
2018-07-07T02:51:50.269Z,101465.80
2018-07-07T02:54:19.677Z,101474.95
2018-07-07T02:56:48.738Z,101472.19
2018-07-07T02:59:17.462Z,101466.73
2018-07-07T03:01:46.192Z,101473.28
2018-07-07T03:04:15.231Z,101472.41
2018-07-07T03:06:44.055Z,101463.73
2018-07-07T03:09:13.054Z,101470.27
2018-07-07T03:11:42.176Z,101473.90
2018-07-07T03:14:11.194Z,101474.22
2018-07-07T03:16:40.254Z,101476.17
2018-07-07T03:19:08.918Z,101476.80
2018-07-07T03:21:37.697Z,101485.25
2018-07-07T03:24:06.433Z,101482.33
2018-07-07T03:26:35.159Z,101488.45
2018-07-07T03:29:03.834Z,101488.22
2018-07-07T03:31:32.601Z,101482.06
2018-07-07T03:34:01.214Z,101488.61
2018-07-07T03:36:30.219Z,101477.44
2018-07-07T03:38:59.474Z,101482.64
2018-07-07T03:41:28.466Z,101489.56
2018-07-07T03:43:57.463Z,101489.87
2018-07-07T03:46:26.533Z,101491.03
2018-07-07T03:48:55.356Z,101496.01
2018-07-07T03:51:24.096Z,101494.02
2018-07-07T03:53:52.825Z,101496.53
2018-07-07T03:56:21.732Z,101502.33
2018-07-07T03:58:50.917Z,101506.20
2018-07-07T04:01:19.647Z,101501.44
2018-07-07T04:03:48.602Z,101504.78
2018-07-07T04:06:17.798Z,101507.09
2018-07-07T04:08:46.501Z,101504.59
2018-07-07T04:11:15.473Z,101504.11
2018-07-07T04:13:44.231Z,101508.80
2018-07-07T04:16:13.076Z,101504.44
2018-07-07T04:18:42.061Z,101511.92
2018-07-07T04:21:10.700Z,101518.78
2018-07-07T04:23:39.898Z,101507.67
2018-07-07T04:26:08.616Z,101516.77
2018-07-07T04:28:37.315Z,101511.96
2018-07-07T04:31:06.536Z,101517.92
2018-07-07T04:33:35.355Z,101514.47
2018-07-07T04:36:04.054Z,101517.45
2018-07-07T04:38:32.741Z,101519.81
2018-07-07T04:41:02.106Z,101518.55
2018-07-07T04:43:30.933Z,101516.58
2018-07-07T04:45:59.646Z,101514.78
2018-07-07T04:48:28.377Z,101514.02
2018-07-07T04:50:57.054Z,101521.30
2018-07-07T04:53:25.716Z,101518.80
2018-07-07T04:55:54.445Z,101522.00
2018-07-07T04:58:23.236Z,101522.43
2018-07-07T05:00:51.889Z,101522.49
2018-07-07T05:03:20.542Z,101523.79
2018-07-07T05:05:49.185Z,101525.83
2018-07-07T05:08:18.562Z,101531.33
2018-07-07T05:10:47.292Z,101532.64
2018-07-07T05:13:15.989Z,101535.90
2018-07-07T05:15:45.091Z,101541.71
2018-07-07T05:18:13.773Z,101539.48
2018-07-07T05:20:44.106Z,101543.39
2018-07-07T05:23:14.176Z,101541.78
2018-07-07T05:25:43.773Z,101542.93
2018-07-07T05:28:12.847Z,101544.54
2018-07-07T05:30:41.523Z,101542.88
2018-07-07T05:33:10.281Z,101542.75
2018-07-07T05:35:39.308Z,101541.73
2018-07-07T05:38:08.030Z,101548.40
2018-07-07T05:40:36.854Z,101544.03
2018-07-07T05:43:08.181Z,101536.39
2018-07-07T05:45:36.970Z,101543.50
2018-07-07T05:48:06.652Z,101544.34
2018-07-07T05:50:36.235Z,101547.74
2018-07-07T05:53:05.143Z,101550.55
2018-07-07T05:55:33.818Z,101549.40
2018-07-07T05:58:02.513Z,101543.56
2018-07-07T06:00:31.349Z,101545.28
2018-07-07T06:05:40.710Z,101547.87
2018-07-07T06:08:09.420Z,101548.86
2018-07-07T06:10:38.118Z,101540.77
2018-07-07T06:13:07.273Z,101535.98
2018-07-07T06:15:36.266Z,101537.08
2018-07-07T06:18:05.124Z,101538.31
2018-07-07T06:20:33.864Z,101538.16
2018-07-07T06:23:02.700Z,101536.58
2018-07-07T06:25:31.676Z,101537.76
2018-07-07T06:28:01.633Z,101545.20
2018-07-07T06:30:30.676Z,101537.76
2018-07-07T06:33:00.773Z,101532.27
2018-07-07T06:35:29.655Z,101539.49
2018-07-07T06:37:59.374Z,101542.83
2018-07-07T06:40:28.141Z,101540.06
2018-07-07T06:42:56.934Z,101542.24
2018-07-07T06:45:25.703Z,101544.59
2018-07-07T06:47:54.434Z,101544.88
2018-07-07T06:50:23.131Z,101546.34
2018-07-07T06:52:58.855Z,101537.91
2018-07-07T06:55:27.583Z,101543.45
2018-07-07T06:57:56.306Z,101539.78
2018-07-07T07:00:24.963Z,101545.41
2018-07-07T07:02:53.782Z,101545.19
2018-07-07T07:05:22.817Z,101545.50
2018-07-07T07:07:51.892Z,101539.30
2018-07-07T07:10:20.526Z,101536.91
2018-07-07T07:12:49.590Z,101542.19
2018-07-07T07:15:18.336Z,101538.59
2018-07-07T07:17:47.188Z,101533.88
2018-07-07T07:20:16.257Z,101544.28
2018-07-07T07:22:45.213Z,101541.65
2018-07-07T07:25:13.893Z,101535.43
2018-07-07T07:27:42.925Z,101533.48
2018-07-07T07:30:12.026Z,101530.77
2018-07-07T07:32:40.788Z,101535.74
2018-07-07T07:35:09.871Z,101540.89
2018-07-07T07:37:38.594Z,101547.41
2018-07-07T07:40:08.148Z,101537.69
2018-07-07T07:42:38.496Z,101536.45
2018-07-07T07:45:07.378Z,101531.82
2018-07-07T07:47:36.182Z,101526.53
2018-07-07T07:50:05.073Z,101534.48
2018-07-07T07:52:33.780Z,101537.49
2018-07-07T07:55:02.650Z,101538.08
2018-07-07T07:57:31.644Z,101538.61
2018-07-07T08:00:00.880Z,101532.20
2018-07-07T08:02:29.635Z,101529.88
2018-07-07T08:05:00.136Z,101523.09
2018-07-07T08:07:29.630Z,101520.98
2018-07-07T08:09:59.291Z,101519.38
2018-07-07T08:12:28.334Z,101524.43
2018-07-07T08:14:57.904Z,101517.06
2018-07-07T08:17:26.763Z,101522.76
2018-07-07T08:19:55.861Z,101515.81
2018-07-07T08:22:24.720Z,101513.05
2018-07-07T08:24:53.565Z,101513.16
2018-07-07T08:27:22.330Z,101520.75
2018-07-07T08:29:51.050Z,101526.90
2018-07-07T08:32:20.154Z,101518.53
2018-07-07T08:34:48.901Z,101520.98
2018-07-07T08:37:17.685Z,101521.71
2018-07-07T08:39:46.841Z,101531.79
2018-07-07T08:42:15.737Z,101529.41
2018-07-07T08:44:44.808Z,101525.67
2018-07-07T08:47:13.722Z,101525.58
2018-07-07T08:49:42.402Z,101522.27
2018-07-07T08:52:11.150Z,101525.04
2018-07-07T08:54:40.080Z,101524.53
2018-07-07T08:57:08.793Z,101526.58
2018-07-07T08:59:37.547Z,101529.92
2018-07-07T09:02:06.985Z,101524.66
2018-07-07T09:04:35.851Z,101521.73
2018-07-07T09:07:04.692Z,101526.31
2018-07-07T09:09:33.400Z,101521.23
2018-07-07T09:12:02.368Z,101515.59
2018-07-07T09:14:31.075Z,101518.32
2018-07-07T09:16:59.781Z,101514.99
2018-07-07T09:19:28.954Z,101513.92
2018-07-07T09:21:57.695Z,101513.70
2018-07-07T09:24:26.408Z,101512.67
2018-07-07T09:26:55.128Z,101514.44
2018-07-07T09:29:24.059Z,101502.33
2018-07-07T09:31:52.885Z,101504.04
2018-07-07T09:34:21.603Z,101510.02
2018-07-07T09:36:50.539Z,101507.94
2018-07-07T09:39:19.310Z,101511.67
2018-07-07T09:41:48.079Z,101495.11
2018-07-07T09:44:17.620Z,101497.20
2018-07-07T09:46:46.944Z,101498.86
2018-07-07T09:49:15.669Z,101495.75
2018-07-07T09:51:44.780Z,101488.38
2018-07-07T09:54:13.560Z,101492.64
2018-07-07T09:56:42.379Z,101493.48
2018-07-07T09:59:11.164Z,101486.23
2018-07-07T10:01:39.905Z,101485.25
2018-07-07T10:04:08.766Z,101491.99
2018-07-07T10:06:37.487Z,101501.40
2018-07-07T10:09:06.286Z,101490.00
2018-07-07T10:11:35.320Z,101488.50
2018-07-07T10:14:04.309Z,101493.33
2018-07-07T10:16:33.030Z,101488.99
2018-07-07T10:19:01.799Z,101483.38
2018-07-07T10:21:30.789Z,101482.44
2018-07-07T10:23:59.493Z,101482.44
2018-07-07T10:26:28.577Z,101479.59
2018-07-07T10:28:57.756Z,101485.70
2018-07-07T10:31:26.510Z,101490.75
2018-07-07T10:33:55.552Z,101478.38
2018-07-07T10:36:24.426Z,101480.84
2018-07-07T10:38:53.225Z,101485.57
2018-07-07T10:41:22.299Z,101471.94
2018-07-07T10:43:51.021Z,101477.91
2018-07-07T10:46:20.198Z,101480.62
2018-07-07T10:48:48.931Z,101472.62
2018-07-07T10:51:17.660Z,101474.42
2018-07-07T10:53:46.622Z,101467.19
2018-07-07T10:56:15.734Z,101469.06
2018-07-07T10:58:44.499Z,101466.23
2018-07-07T11:01:13.595Z,101477.84
2018-07-07T11:03:42.300Z,101469.30
2018-07-07T11:06:11.014Z,101463.25
2018-07-07T11:08:40.058Z,101464.68
2018-07-07T11:11:08.887Z,101472.30
2018-07-07T11:13:37.883Z,101475.47
2018-07-07T11:16:07.755Z,101469.11
2018-07-07T11:18:36.539Z,101469.75
2018-07-07T11:21:05.412Z,101468.06
2018-07-07T11:23:34.271Z,101461.19
2018-07-07T11:26:03.163Z,101475.47
2018-07-07T11:28:31.867Z,101462.77
2018-07-07T11:31:00.592Z,101469.09
2018-07-07T11:33:32.114Z,101457.61
2018-07-07T11:36:01.332Z,101460.00
2018-07-07T11:38:30.451Z,101453.51
2018-07-07T11:40:59.236Z,101466.41
2018-07-07T11:43:28.701Z,101461.18
2018-07-07T11:45:57.799Z,101455.13
2018-07-07T11:48:26.498Z,101451.17
2018-07-07T11:50:55.300Z,101448.95
2018-07-07T11:53:24.216Z,101441.59
2018-07-07T11:55:52.910Z,101441.48
2018-07-07T11:58:21.615Z,101441.59
2018-07-07T12:00:50.759Z,101441.21
2018-07-07T12:03:19.582Z,101444.98
2018-07-07T12:05:48.217Z,101441.15
2018-07-07T12:08:16.908Z,101439.91
2018-07-07T12:10:46.031Z,101432.73
2018-07-07T12:13:15.202Z,101447.00
2018-07-07T12:15:43.937Z,101437.00
2018-07-07T12:18:12.857Z,101435.00
2018-07-07T12:20:41.750Z,101432.95
2018-07-07T12:23:10.650Z,101431.84
2018-07-07T12:25:39.724Z,101432.89
2018-07-07T12:28:08.581Z,101433.84
2018-07-07T12:30:37.564Z,101437.69
2018-07-07T12:33:06.670Z,101427.38
2018-07-07T12:35:35.572Z,101425.25
2018-07-07T12:38:04.330Z,101418.02
2018-07-07T12:40:33.495Z,101420.30
2018-07-07T12:43:02.026Z,101419.05
2018-07-07T12:45:30.910Z,101413.78
2018-07-07T12:48:07.342Z,101410.67
2018-07-07T12:50:36.260Z,101412.84
2018-07-07T12:53:05.355Z,101414.70
2018-07-07T12:55:34.499Z,101412.03
2018-07-07T12:58:03.384Z,101416.81
2018-07-07T13:00:32.126Z,101408.75
2018-07-07T13:03:00.899Z,101397.80
2018-07-07T13:05:29.939Z,101406.32
2018-07-07T13:07:58.749Z,101400.84
2018-07-07T13:10:27.659Z,101407.46
2018-07-07T13:12:56.328Z,101394.84
2018-07-07T13:15:25.332Z,101405.31
2018-07-07T13:17:54.302Z,101403.67
2018-07-07T13:20:23.030Z,101406.61
2018-07-07T13:22:51.775Z,101409.19
2018-07-07T13:25:20.502Z,101400.02
2018-07-07T13:27:49.261Z,101402.48
2018-07-07T13:30:17.960Z,101395.58
2018-07-07T13:32:46.860Z,101406.10
2018-07-07T13:35:15.642Z,101397.49
2018-07-07T13:37:44.652Z,101402.98
2018-07-07T13:40:13.439Z,101407.30
2018-07-07T13:42:42.343Z,101405.45
2018-07-07T13:45:11.463Z,101398.01
2018-07-07T13:47:40.227Z,101398.23
2018-07-07T13:50:09.158Z,101409.40
2018-07-07T13:52:37.948Z,101408.34
2018-07-07T13:55:06.714Z,101401.78
2018-07-07T13:57:35.450Z,101400.92
2018-07-07T14:00:04.389Z,101398.95
2018-07-07T14:02:39.784Z,101412.80
2018-07-07T14:05:08.898Z,101404.08
2018-07-07T14:07:38.013Z,101402.87
2018-07-07T14:10:06.918Z,101410.20
2018-07-07T14:12:35.667Z,101412.04
2018-07-07T14:15:05.265Z,101412.82
2018-07-07T14:17:34.184Z,101401.12
2018-07-07T14:20:03.208Z,101405.34
2018-07-07T14:22:32.019Z,101402.55
2018-07-07T14:25:01.011Z,101406.88
2018-07-07T14:27:29.857Z,101402.41
2018-07-07T14:29:58.939Z,101404.94
2018-07-07T14:32:27.648Z,101405.50
2018-07-07T14:34:56.389Z,101397.84
2018-07-07T14:37:25.162Z,101404.73
2018-07-07T14:40:00.938Z,101405.55
2018-07-07T14:42:47.719Z,101402.19
2018-07-07T14:45:21.616Z,101396.12
2018-07-07T14:47:51.518Z,101402.89
2018-07-07T14:50:20.424Z,101396.75
2018-07-07T14:52:49.499Z,101402.00
2018-07-07T14:55:19.547Z,101400.53
2018-07-07T14:57:49.043Z,101402.41
2018-07-07T15:00:20.362Z,101406.06
2018-07-07T15:02:51.316Z,101394.86
2018-07-07T15:05:20.403Z,101404.86
2018-07-07T15:07:49.824Z,101406.90
2018-07-07T15:10:19.679Z,101401.47
2018-07-07T15:12:50.589Z,101397.44
2018-07-07T15:15:19.359Z,101387.50
2018-07-07T15:17:48.537Z,101392.59
2018-07-07T15:20:17.330Z,101394.29
2018-07-07T15:22:46.373Z,101382.84
2018-07-07T15:25:15.051Z,101384.11
2018-07-07T15:27:43.834Z,101371.23
2018-07-07T15:30:12.508Z,101377.34
2018-07-07T15:32:41.558Z,101365.24
2018-07-07T15:35:10.628Z,101366.89
2018-07-07T15:37:39.840Z,101362.23
2018-07-07T15:40:08.705Z,101364.98
2018-07-07T15:42:37.456Z,101359.22
2018-07-07T15:45:06.282Z,101364.69
2018-07-07T15:47:34.949Z,101356.19
2018-07-07T15:50:04.501Z,101354.82
2018-07-07T15:52:33.232Z,101357.02
2018-07-07T15:55:02.089Z,101362.77
2018-07-07T15:57:31.669Z,101348.81
2018-07-07T16:00:01.105Z,101354.58
2018-07-07T16:02:30.034Z,101352.94
2018-07-07T16:04:59.334Z,101362.22
2018-07-07T16:07:28.159Z,101353.73
2018-07-07T16:09:57.045Z,101355.61
2018-07-07T16:12:25.860Z,101363.25
2018-07-07T16:14:54.698Z,101364.06
2018-07-07T16:17:23.439Z,101358.01
2018-07-07T16:19:52.316Z,101351.42
2018-07-07T16:22:21.081Z,101349.44
2018-07-07T16:24:49.899Z,101354.88
2018-07-07T16:27:18.654Z,101356.49
2018-07-07T16:29:47.475Z,101348.81
2018-07-07T16:32:16.275Z,101357.02
2018-07-07T16:34:45.543Z,101364.39
2018-07-07T16:37:14.788Z,101355.87
2018-07-07T16:39:43.579Z,101360.82
2018-07-07T16:42:12.473Z,101367.31
2018-07-07T16:44:41.293Z,101360.48
2018-07-07T16:47:10.082Z,101365.16
2018-07-07T16:49:39.080Z,101363.75
2018-07-07T16:52:08.170Z,101365.33
2018-07-07T16:54:37.358Z,101352.36
2018-07-07T16:57:06.050Z,101355.27
2018-07-07T16:59:35.043Z,101352.99
2018-07-07T17:02:03.850Z,101353.02
2018-07-07T17:04:32.896Z,101359.54
2018-07-07T17:07:01.717Z,101352.08
2018-07-07T17:09:30.508Z,101352.91
2018-07-07T17:11:59.351Z,101349.86
2018-07-07T17:14:28.104Z,101355.83
2018-07-07T17:16:57.384Z,101355.77
2018-07-07T17:19:26.460Z,101357.38
2018-07-07T17:21:55.570Z,101351.63
2018-07-07T17:24:24.953Z,101356.48
2018-07-07T17:26:53.971Z,101355.41
2018-07-07T17:29:22.747Z,101359.17
2018-07-07T17:31:51.863Z,101364.34
2018-07-07T17:34:20.634Z,101357.99
2018-07-07T17:36:49.515Z,101360.11
2018-07-07T17:39:18.353Z,101364.16
2018-07-07T17:41:47.582Z,101365.99
2018-07-07T17:44:16.384Z,101360.45
2018-07-07T17:46:45.510Z,101362.31
2018-07-07T17:49:14.985Z,101362.27
2018-07-07T17:51:43.827Z,101358.13
2018-07-07T17:54:12.787Z,101359.21
2018-07-07T17:56:41.576Z,101358.38
2018-07-07T17:59:10.404Z,101363.83
2018-07-07T18:01:45.743Z,101360.98
2018-07-07T18:04:14.847Z,101363.94
2018-07-07T18:06:43.614Z,101364.97
2018-07-07T18:09:12.300Z,101363.03
2018-07-07T18:11:41.223Z,101372.56
2018-07-07T18:14:09.772Z,101374.13
2018-07-07T18:16:38.831Z,101370.03
2018-07-07T18:19:07.613Z,101375.73
2018-07-07T18:21:36.381Z,101378.63
2018-07-07T18:24:05.207Z,101375.06
2018-07-07T18:26:34.136Z,101375.06
2018-07-07T18:29:02.977Z,101374.97
2018-07-07T18:31:33.085Z,101376.86
2018-07-07T18:34:01.770Z,101374.33
2018-07-07T18:36:30.514Z,101376.22
2018-07-07T18:38:59.318Z,101381.96
2018-07-07T18:41:28.062Z,101379.67
2018-07-07T18:43:56.845Z,101382.41
2018-07-07T18:46:26.146Z,101379.95
2018-07-07T18:48:54.874Z,101381.20
2018-07-07T18:51:23.537Z,101378.39
2018-07-07T18:53:52.515Z,101372.34
2018-07-07T18:56:21.201Z,101373.09
2018-07-07T18:58:50.979Z,101379.56
2018-07-07T19:01:20.085Z,101381.17
2018-07-07T19:03:48.770Z,101379.98
2018-07-07T19:06:17.502Z,101380.50
2018-07-07T19:08:46.283Z,101382.34
2018-07-07T19:11:15.114Z,101381.74
2018-07-07T19:13:44.146Z,101377.81
2018-07-07T19:16:13.155Z,101385.94
2018-07-07T19:18:42.511Z,101387.03
2018-07-07T19:21:16.515Z,101393.25
2018-07-07T19:24:53.118Z,101401.72
2018-07-07T19:27:21.981Z,101393.95
2018-07-07T19:29:50.692Z,101398.33
2018-07-07T19:32:24.590Z,101399.56
2018-07-07T19:34:58.357Z,101402.16
2018-07-07T19:37:27.087Z,101403.91
2018-07-07T19:39:56.193Z,101407.70
2018-07-07T19:42:24.985Z,101406.79
2018-07-07T19:44:54.568Z,101402.05
2018-07-07T19:47:23.390Z,101406.34
2018-07-07T19:49:52.449Z,101409.31
2018-07-07T19:52:21.311Z,101403.55
2018-07-07T19:54:50.068Z,101404.61
2018-07-07T19:57:19.097Z,101407.27
2018-07-07T19:59:47.809Z,101400.67
2018-07-07T20:02:16.492Z,101410.14
2018-07-07T20:04:45.237Z,101411.97
2018-07-07T20:07:14.020Z,101417.00
2018-07-07T20:09:43.359Z,101408.45
2018-07-07T20:12:12.203Z,101417.97
2018-07-07T20:14:41.021Z,101415.98
2018-07-07T20:17:11.153Z,101420.00
2018-07-07T20:20:58.635Z,101421.56
2018-07-07T20:23:28.774Z,101425.52
2018-07-07T20:26:03.594Z,101430.36
2018-07-07T20:28:37.509Z,101430.33
2018-07-07T20:31:06.291Z,101429.10
2018-07-07T20:33:35.323Z,101426.55
2018-07-07T20:36:04.141Z,101428.97
2018-07-07T20:38:32.818Z,101434.31
2018-07-07T20:41:01.531Z,101432.32
2018-07-07T20:43:30.605Z,101436.33
2018-07-07T20:45:59.235Z,101433.73
2018-07-07T20:48:28.496Z,101432.80
2018-07-07T20:50:57.178Z,101435.98
2018-07-07T20:53:25.960Z,101443.08
2018-07-07T20:55:55.304Z,101443.23
2018-07-07T20:58:24.036Z,101444.03
2018-07-07T21:00:52.796Z,101442.80
2018-07-07T21:03:21.626Z,101448.20
2018-07-07T21:05:50.287Z,101450.37
2018-07-07T21:08:19.365Z,101450.23
2018-07-07T21:10:48.351Z,101455.14
2018-07-07T21:13:17.471Z,101454.20
2018-07-07T21:15:46.702Z,101455.45
2018-07-07T21:18:15.492Z,101465.19
2018-07-07T21:20:44.269Z,101466.55
2018-07-07T21:23:13.013Z,101466.47
2018-07-07T21:25:42.513Z,101472.09
2018-07-07T21:28:11.160Z,101472.58
2018-07-07T21:30:39.852Z,101473.52
2018-07-07T21:33:08.559Z,101475.36
2018-07-07T21:35:37.323Z,101472.38
2018-07-07T21:38:06.403Z,101469.32
2018-07-07T21:40:35.362Z,101476.26
2018-07-07T21:43:04.459Z,101478.40
2018-07-07T21:45:33.175Z,101483.05
2018-07-07T21:48:01.818Z,101485.19
2018-07-07T21:50:30.845Z,101481.26
2018-07-07T21:53:00.169Z,101481.44
2018-07-07T21:55:28.898Z,101484.91
2018-07-07T21:58:02.886Z,101485.98
2018-07-07T22:00:37.100Z,101487.17
2018-07-07T22:03:11.177Z,101486.74
2018-07-07T22:06:11.617Z,101490.28
2018-07-07T22:08:41.070Z,101489.15
2018-07-07T22:11:10.765Z,101488.63
2018-07-07T22:13:39.505Z,101491.26
2018-07-07T22:16:08.463Z,101496.38
2018-07-07T22:18:37.323Z,101497.91
2018-07-07T22:21:16.992Z,101494.81
2018-07-07T22:23:45.672Z,101493.92
2018-07-07T22:26:15.094Z,101493.31
2018-07-07T22:28:45.435Z,101495.20
2018-07-07T22:31:14.114Z,101502.29
2018-07-07T22:33:42.773Z,101496.28
2018-07-07T22:36:17.082Z,101492.66
2018-07-07T22:38:51.426Z,101491.74
2018-07-07T22:41:21.067Z,101496.38
2018-07-07T22:43:50.000Z,101492.96
2018-07-07T22:46:18.751Z,101494.79
2018-07-07T22:48:47.506Z,101490.86
2018-07-07T22:51:16.397Z,101497.80
2018-07-07T22:53:45.542Z,101499.68
2018-07-07T22:56:14.470Z,101500.95
2018-07-07T22:58:43.242Z,101498.09
2018-07-07T23:01:11.934Z,101497.34
2018-07-07T23:03:40.902Z,101503.81
2018-07-07T23:06:09.587Z,101496.11
2018-07-07T23:08:38.377Z,101498.68
2018-07-07T23:11:07.160Z,101494.44
2018-07-07T23:13:36.258Z,101499.16
2018-07-07T23:16:05.634Z,101495.83
2018-07-07T23:18:34.587Z,101496.81
2018-07-07T23:21:03.382Z,101496.81
2018-07-07T23:23:32.057Z,101497.55
2018-07-07T23:26:00.810Z,101498.77
2018-07-07T23:28:30.161Z,101494.39
2018-07-07T23:30:58.799Z,101493.34
2018-07-07T23:33:27.784Z,101497.09
2018-07-07T23:35:56.573Z,101494.55
2018-07-07T23:38:25.257Z,101494.97
2018-07-07T23:40:54.936Z,101494.97
2018-07-07T23:43:24.013Z,101492.27
2018-07-07T23:45:52.757Z,101499.04
2018-07-07T23:48:21.719Z,101491.34
2018-07-07T23:50:50.695Z,101489.72
2018-07-07T23:53:19.376Z,101493.59
2018-07-07T23:55:48.039Z,101495.56
2018-07-07T23:58:16.769Z,101490.88
